Time,TemperatureF,DewpointF,PressureIn,WindDirection,WindDirectionDegrees,WindSpeedMPH,WindSpeedGustMPH,Humidity,HourlyPrecipIn,Conditions,Clouds,dailyrainin,SolarRadiationWatts/m^2,SoftwareType,DateUTC
2014-02-13 00:03:00,35.5,32.6,28.90,West,269,8.0,8.0,89,0.00,RA,,0.00,0.0,WeatherDisplay:10.37,2014-02-13 00:03:00,
2014-02-13 00:08:00,35.0,32.6,28.90,West,280,8.1,8.1,91,0.00,RA,,0.00,0.0,WeatherDisplay:10.37,2014-02-13 00:08:00,
2014-02-13 00:13:00,34.8,32.7,28.91,SSW,211,10.4,10.4,92,0.01,RA,,0.01,0.0,WeatherDisplay:10.37,2014-02-13 00:13:00,
2014-02-13 00:18:00,34.6,32.8,28.90,West,260,5.8,5.8,93,0.01,RA,,0.01,0.0,WeatherDisplay:10.37,2014-02-13 00:18:00,
2014-02-13 00:23:00,34.6,32.8,28.91,West,271,7.0,7.0,93,0.01,BKN,,0.01,0.0,WeatherDisplay:10.37,2014-02-13 00:23:00,
2014-02-13 00:28:00,34.6,32.8,28.91,West,262,6.9,6.9,93,0.01,BKN,,0.01,0.0,WeatherDisplay:10.37,2014-02-13 00:28:00,
2014-02-13 00:33:00,34.8,33.2,28.91,WSW,253,11.5,11.5,94,0.01,BKN,,0.01,0.0,WeatherDisplay:10.37,2014-02-13 00:33:00,
2014-02-13 00:38:00,35.0,33.2,28.91,WSW,250,9.2,9.2,93,0.01,BKN,,0.01,0.0,WeatherDisplay:10.37,2014-02-13 00:38:00,
2014-02-13 00:43:00,35.2,33.4,28.91,West,278,5.8,5.8,93,0.01,BKN,,0.01,0.0,WeatherDisplay:10.37,2014-02-13 00:43:00,
2014-02-13 00:48:00,35.2,33.4,28.91,WNW,283,6.9,6.9,93,0.02,RA,,0.02,0.0,WeatherDisplay:10.37,2014-02-13 00:48:00,
2014-02-13 00:53:00,35.1,33.3,28.91,West,276,5.0,5.0,93,0.02,RA,,0.02,0.0,WeatherDisplay:10.37,2014-02-13 00:53:00,
2014-02-13 00:58:00,35.1,33.3,28.90,SW,233,3.5,3.5,93,0.02,BKN,,0.02,0.0,WeatherDisplay:10.37,2014-02-13 00:58:00,
2014-02-13 01:03:00,35.1,33.3,28.90,SW,221,8.1,8.1,93,0.02,BKN,,0.02,0.0,WeatherDisplay:10.37,2014-02-13 01:03:00,
2014-02-13 01:08:00,35.0,33.2,28.90,West,262,2.3,2.3,93,0.02,BKN,,0.02,0.0,WeatherDisplay:10.37,2014-02-13 01:08:00,
2014-02-13 01:13:00,34.9,33.1,28.90,WSW,254,1.2,1.2,93,0.01,BKN,,0.02,0.0,WeatherDisplay:10.37,2014-02-13 01:13:00,
2014-02-13 01:18:00,34.8,33.0,28.91,SW,226,0.0,0.0,93,0.01,BKN,,0.02,0.0,WeatherDisplay:10.37,2014-02-13 01:18:00,
2014-02-13 01:23:00,34.6,32.8,28.91,SW,220,3.5,3.5,93,0.01,BKN,,0.02,0.0,WeatherDisplay:10.37,2014-02-13 01:23:00,
2014-02-13 01:28:00,34.3,32.5,28.91,SSW,211,2.3,2.3,93,0.01,BKN,,0.02,0.0,WeatherDisplay:10.37,2014-02-13 01:28:00,
2014-02-13 01:33:00,34.2,32.7,28.91,SSW,210,1.2,0.0,94,0.01,BKN,,0.02,0.0,WeatherDisplay:10.37,2014-02-13 01:33:00,
2014-02-13 01:38:00,34.1,32.6,28.91,WSW,256,2.3,2.3,94,0.01,BKN,,0.02,0.0,WeatherDisplay:10.37,2014-02-13 01:38:00,
2014-02-13 01:43:00,34.5,33.0,28.91,WSW,250,11.5,11.5,94,0.01,BKN,,0.02,0.0,WeatherDisplay:10.37,2014-02-13 01:43:00,
2014-02-13 01:48:00,35.2,33.1,28.91,SSW,193,10.4,10.4,92,0.00,BKN,,0.02,0.0,WeatherDisplay:10.37,2014-02-13 01:48:00,
2014-02-13 01:53:00,35.7,33.3,28.91,WSW,248,13.8,13.8,91,0.00,BKN,,0.02,0.0,WeatherDisplay:10.37,2014-02-13 01:53:00,
2014-02-13 01:58:00,35.9,33.3,28.91,SW,229,11.5,11.5,90,0.00,BKN,,0.02,0.0,WeatherDisplay:10.37,2014-02-13 01:58:00,
2014-02-13 02:03:00,36.0,33.1,28.91,SW,221,17.3,17.3,89,0.00,BKN,,0.02,0.0,WeatherDisplay:10.37,2014-02-13 02:03:00,
2014-02-13 02:08:00,36.2,33.3,28.91,WSW,249,13.8,13.8,89,0.00,BKN,,0.02,0.0,WeatherDisplay:10.37,2014-02-13 02:08:00,
2014-02-13 02:13:00,36.2,33.5,28.92,SW,214,11.5,11.5,90,0.00,BKN,,0.02,0.0,WeatherDisplay:10.37,2014-02-13 02:13:00,
2014-02-13 02:18:00,36.1,33.5,28.92,SSW,212,16.1,16.1,90,0.00,BKN,,0.02,0.0,WeatherDisplay:10.37,2014-02-13 02:18:00,
2014-02-13 02:23:00,36.1,33.7,28.92,WSW,244,13.8,13.8,91,0.00,BKN,,0.02,0.0,WeatherDisplay:10.37,2014-02-13 02:23:00,
2014-02-13 02:28:00,35.9,33.5,28.92,WSW,252,13.8,13.8,91,0.00,BKN,,0.02,0.0,WeatherDisplay:10.37,2014-02-13 02:28:00,
2014-02-13 02:33:00,35.5,33.4,28.92,SW,236,11.5,11.5,92,0.01,RA,,0.02,0.0,WeatherDisplay:10.37,2014-02-13 02:33:00,
2014-02-13 02:38:00,35.3,33.5,28.92,SW,231,5.8,5.8,93,0.01,RA,,0.02,0.0,WeatherDisplay:10.37,2014-02-13 02:38:00,
2014-02-13 02:43:00,35.3,33.5,28.93,West,273,8.1,8.1,93,0.01,BKN,,0.02,0.0,WeatherDisplay:10.37,2014-02-13 02:43:00,
2014-02-13 02:48:00,35.1,33.3,28.93,West,259,9.0,9.0,93,0.02,RA,,0.03,0.0,WeatherDisplay:10.37,2014-02-13 02:48:00,
2014-02-13 02:53:00,34.8,33.2,28.93,West,274,11.5,11.5,94,0.03,RA,,0.05,0.0,WeatherDisplay:10.37,2014-02-13 02:53:00,
2014-02-13 02:58:00,34.5,33.0,28.92,WSW,246,10.4,10.4,94,0.03,RA,,0.05,0.0,WeatherDisplay:10.37,2014-02-13 02:58:00,
2014-02-13 03:03:00,34.2,32.7,28.92,WSW,257,5.8,5.8,94,0.04,RA,,0.06,0.0,WeatherDisplay:10.37,2014-02-13 03:03:00,
2014-02-13 03:08:00,34.2,32.9,28.92,West,270,10.4,10.4,95,0.04,RA,,0.06,0.0,WeatherDisplay:10.37,2014-02-13 03:08:00,
2014-02-13 03:13:00,34.4,33.1,28.92,West,269,7.0,7.0,95,0.04,BKN,,0.06,0.0,WeatherDisplay:10.37,2014-02-13 03:13:00,
2014-02-13 03:18:00,34.5,33.2,28.92,West,269,6.0,6.0,95,0.04,BKN,,0.06,0.0,WeatherDisplay:10.37,2014-02-13 03:18:00,
2014-02-13 03:23:00,34.5,33.0,28.92,WSW,243,5.8,5.8,94,0.04,BKN,,0.06,0.0,WeatherDisplay:10.37,2014-02-13 03:23:00,
2014-02-13 03:28:00,34.2,32.7,28.92,SW,223,4.6,4.6,94,0.04,BKN,,0.06,0.0,WeatherDisplay:10.37,2014-02-13 03:28:00,
2014-02-13 03:33:00,34.0,32.5,28.93,SW,235,3.5,3.5,94,0.03,BKN,,0.06,0.0,WeatherDisplay:10.37,2014-02-13 03:33:00,
2014-02-13 03:38:00,33.8,32.3,28.93,SSE,158,3.5,3.5,94,0.03,BKN,,0.06,0.0,WeatherDisplay:10.37,2014-02-13 03:38:00,
2014-02-13 03:43:00,33.7,32.4,28.93,South,183,3.5,3.5,95,0.03,BKN,,0.06,0.0,WeatherDisplay:10.37,2014-02-13 03:43:00,
2014-02-13 03:48:00,33.7,32.4,28.93,SSW,208,3.5,3.5,95,0.02,BKN,,0.06,0.0,WeatherDisplay:10.37,2014-02-13 03:48:00,
2014-02-13 03:53:00,34.0,32.7,28.94,West,263,6.9,6.9,95,0.01,BKN,,0.06,0.0,WeatherDisplay:10.37,2014-02-13 03:53:00,
2014-02-13 03:58:00,34.3,33.0,28.94,WSW,245,19.6,19.6,95,0.02,RA,,0.07,0.0,WeatherDisplay:10.37,2014-02-13 03:58:00,
2014-02-13 04:03:00,34.3,33.0,28.94,West,280,11.5,11.5,95,0.02,RA,,0.07,0.0,WeatherDisplay:10.37,2014-02-13 04:03:00,
2014-02-13 04:08:00,34.3,33.0,28.94,West,265,8.1,8.1,95,0.02,RA,,0.08,0.0,WeatherDisplay:10.37,2014-02-13 04:08:00,
2014-02-13 04:13:00,34.3,33.0,28.93,WSW,237,5.8,5.8,95,0.02,RA,,0.08,0.0,WeatherDisplay:10.37,2014-02-13 04:13:00,
2014-02-13 04:18:00,34.4,33.1,28.92,SW,231,6.9,6.9,95,0.02,BKN,,0.08,0.0,WeatherDisplay:10.37,2014-02-13 04:18:00,
2014-02-13 04:23:00,34.4,33.1,28.93,SW,227,6.9,6.9,95,0.02,BKN,,0.08,0.0,WeatherDisplay:10.37,2014-02-13 04:23:00,
2014-02-13 04:28:00,34.4,33.1,28.93,WSW,248,5.8,5.8,95,0.02,BKN,,0.08,0.0,WeatherDisplay:10.37,2014-02-13 04:28:00,
2014-02-13 04:33:00,34.3,33.0,28.93,SW,219,3.5,3.5,95,0.02,BKN,,0.08,0.0,WeatherDisplay:10.37,2014-02-13 04:33:00,
2014-02-13 04:38:00,34.1,32.6,28.93,SSW,208,3.5,3.5,94,0.02,BKN,,0.08,0.0,WeatherDisplay:10.37,2014-02-13 04:38:00,
2014-02-13 04:43:00,33.8,32.3,28.93,SSW,210,3.5,3.5,94,0.02,BKN,,0.08,0.0,WeatherDisplay:10.37,2014-02-13 04:43:00,
2014-02-13 04:48:00,33.6,32.3,28.94,SW,214,4.0,4.0,95,0.02,BKN,,0.08,0.0,WeatherDisplay:10.37,2014-02-13 04:48:00,
2014-02-13 04:53:00,33.6,32.3,28.94,SW,225,4.6,4.6,95,0.02,BKN,,0.08,0.0,WeatherDisplay:10.37,2014-02-13 04:53:00,
2014-02-13 04:58:00,33.6,32.3,28.94,SSW,210,4.6,4.6,95,0.02,BKN,,0.08,0.0,WeatherDisplay:10.37,2014-02-13 04:58:00,
2014-02-13 05:01:00,33.6,32.3,28.94,SW,232,4.6,4.6,95,0.01,BKN,,0.08,0.0,WeatherDisplay:10.37,2014-02-13 05:01:00,
2014-02-13 05:06:00,33.8,32.5,28.95,SSW,200,10.4,10.4,95,0.00,BKN,,0.08,0.0,WeatherDisplay:10.37,2014-02-13 05:06:00,
2014-02-13 05:11:00,33.9,32.6,28.95,SW,236,18.4,18.4,95,0.00,BKN,,0.08,0.0,WeatherDisplay:10.37,2014-02-13 05:11:00,
2014-02-13 05:16:00,34.1,32.8,28.95,SW,229,13.0,13.0,95,0.00,BKN,,0.08,0.0,WeatherDisplay:10.37,2014-02-13 05:16:00,
2014-02-13 05:21:00,34.3,33.0,28.94,West,262,10.4,10.4,95,0.01,RA,,0.09,0.0,WeatherDisplay:10.37,2014-02-13 05:21:00,
2014-02-13 05:26:00,34.4,33.1,28.94,SW,217,11.5,11.5,95,0.01,RA,,0.09,0.0,WeatherDisplay:10.37,2014-02-13 05:26:00,
2014-02-13 05:31:00,34.4,33.1,28.93,SSW,203,8.1,8.1,95,0.01,BKN,,0.09,0.0,WeatherDisplay:10.37,2014-02-13 05:31:00,
2014-02-13 05:36:00,34.4,33.1,28.93,SSW,203,8.1,8.1,95,0.01,BKN,,0.09,0.0,WeatherDisplay:10.37,2014-02-13 05:36:00,
2014-02-13 05:41:00,34.3,33.0,28.93,SSW,193,5.8,5.8,95,0.01,BKN,,0.09,0.0,WeatherDisplay:10.37,2014-02-13 05:41:00,
2014-02-13 05:46:00,34.1,32.8,28.93,SW,229,5.0,5.0,95,0.01,BKN,,0.09,0.0,WeatherDisplay:10.37,2014-02-13 05:46:00,
2014-02-13 05:51:00,34.1,32.6,28.93,SW,214,5.8,5.8,94,0.01,BKN,,0.09,0.0,WeatherDisplay:10.37,2014-02-13 05:51:00,
2014-02-13 05:56:00,34.1,32.6,28.94,WSW,240,6.9,6.9,94,0.01,BKN,,0.09,0.0,WeatherDisplay:10.37,2014-02-13 05:56:00,
2014-02-13 06:01:00,34.1,32.6,28.94,SSW,212,4.6,4.6,94,0.01,BKN,,0.09,0.0,WeatherDisplay:10.37,2014-02-13 06:01:00,
2014-02-13 06:06:00,33.9,32.4,28.94,South,172,10.4,10.4,94,0.01,BKN,,0.09,0.0,WeatherDisplay:10.37,2014-02-13 06:06:00,
2014-02-13 06:11:00,33.8,32.3,28.94,SSW,212,6.9,6.9,94,0.01,BKN,,0.09,0.0,WeatherDisplay:10.37,2014-02-13 06:11:00,
2014-02-13 06:16:00,33.7,32.4,28.95,South,187,11.5,11.5,95,0.01,BKN,,0.09,0.0,WeatherDisplay:10.37,2014-02-13 06:16:00,
2014-02-13 06:21:00,33.7,32.4,28.95,SSE,167,8.1,8.1,95,0.00,BKN,,0.09,0.0,WeatherDisplay:10.37,2014-02-13 06:21:00,
2014-02-13 06:26:00,33.7,32.4,28.95,SSE,149,9.2,9.2,95,0.00,BKN,,0.09,0.0,WeatherDisplay:10.37,2014-02-13 06:26:00,
2014-02-13 06:31:00,33.5,32.2,28.95,SW,230,7.0,7.0,95,0.00,BKN,,0.09,0.0,WeatherDisplay:10.37,2014-02-13 06:31:00,
2014-02-13 06:36:00,33.4,32.1,28.95,South,184,5.8,5.8,95,0.00,BKN,,0.09,0.0,WeatherDisplay:10.37,2014-02-13 06:36:00,
2014-02-13 06:41:00,33.3,32.0,28.95,SSW,207,6.9,6.9,95,0.00,BKN,,0.09,0.0,WeatherDisplay:10.37,2014-02-13 06:41:00,
2014-02-13 06:46:00,33.3,32.0,28.95,WSW,240,5.8,5.8,95,0.00,BKN,,0.09,0.0,WeatherDisplay:10.37,2014-02-13 06:46:00,
2014-02-13 06:51:00,33.2,31.9,28.95,SW,225,3.5,3.5,95,0.00,BKN,,0.09,0.0,WeatherDisplay:10.37,2014-02-13 06:51:00,
2014-02-13 06:56:00,33.2,31.9,28.95,WSW,249,4.6,4.6,95,0.00,BKN,,0.09,0.0,WeatherDisplay:10.37,2014-02-13 06:56:00,
2014-02-13 07:01:00,33.5,32.5,28.98,West,264,9.2,9.2,96,0.00,BKN,,0.09,0.0,WeatherDisplay:10.37,2014-02-13 07:01:00,
2014-02-13 07:06:00,33.5,32.2,28.97,NW,308,6.9,6.9,95,0.00,BKN,,0.09,0.0,WeatherDisplay:10.37,2014-02-13 07:06:00,
2014-02-13 07:11:00,33.8,32.5,28.96,WSW,240,8.1,8.1,95,0.00,BKN,,0.09,0.0,WeatherDisplay:10.37,2014-02-13 07:11:00,
2014-02-13 07:16:00,33.8,32.5,28.95,SSW,207,6.9,6.9,95,0.00,BKN,,0.09,0.0,WeatherDisplay:10.37,2014-02-13 07:16:00,
2014-02-13 07:21:00,33.8,32.5,28.95,SSE,167,8.1,8.1,95,0.00,BKN,,0.09,0.0,WeatherDisplay:10.37,2014-02-13 07:21:00,
2014-02-13 07:26:00,33.8,32.5,28.95,SE,144,4.6,4.6,95,0.00,BKN,,0.09,0.0,WeatherDisplay:10.37,2014-02-13 07:26:00,
2014-02-13 07:31:00,33.8,32.5,28.95,SSW,198,5.8,5.8,95,0.00,BKN,,0.09,0.0,WeatherDisplay:10.37,2014-02-13 07:31:00,
2014-02-13 07:36:00,33.9,32.6,28.96,SW,226,6.0,6.0,95,0.00,BKN,,0.09,0.0,WeatherDisplay:10.37,2014-02-13 07:36:00,
2014-02-13 07:41:00,34.1,32.8,28.96,WSW,243,16.0,16.0,95,0.00,BKN,,0.09,0.0,WeatherDisplay:10.37,2014-02-13 07:41:00,
2014-02-13 07:46:00,35.0,33.7,28.97,WSW,254,12.7,12.7,95,0.00,BKN,,0.09,0.0,WeatherDisplay:10.37,2014-02-13 07:46:00,
2014-02-13 07:51:00,34.9,33.1,28.97,SW,232,12.7,12.7,93,0.00,BKN,,0.09,0.0,WeatherDisplay:10.37,2014-02-13 07:51:00,
2014-02-13 07:56:00,34.6,32.8,28.96,SSW,201,11.5,11.5,93,0.01,RA,,0.09,0.0,WeatherDisplay:10.37,2014-02-13 07:56:00,
2014-02-13 08:01:00,34.3,32.8,28.96,SW,221,6.9,6.9,94,0.01,RA,,0.09,0.0,WeatherDisplay:10.37,2014-02-13 08:01:00,
2014-02-13 08:06:00,34.1,32.6,28.96,SSW,197,6.9,6.9,94,0.02,RA,,0.10,0.0,WeatherDisplay:10.37,2014-02-13 08:06:00,
2014-02-13 08:11:00,34.0,32.7,28.97,SW,219,6.9,6.9,95,0.02,RA,,0.10,0.0,WeatherDisplay:10.37,2014-02-13 08:11:00,
2014-02-13 08:16:00,33.9,32.6,28.97,SSW,201,8.1,8.1,95,0.02,BKN,,0.10,0.0,WeatherDisplay:10.37,2014-02-13 08:16:00,
2014-02-13 08:21:00,33.9,32.6,28.96,SE,144,9.0,9.0,95,0.02,BKN,,0.10,0.0,WeatherDisplay:10.37,2014-02-13 08:21:00,
2014-02-13 08:26:00,34.1,32.8,28.96,West,269,10.4,10.4,95,0.02,RA,,0.11,0.0,WeatherDisplay:10.37,2014-02-13 08:26:00,
2014-02-13 08:31:00,34.1,32.8,28.97,WSW,250,11.5,11.5,95,0.02,RA,,0.11,0.0,WeatherDisplay:10.37,2014-02-13 08:31:00,
2014-02-13 08:36:00,34.1,32.8,28.97,SW,229,11.5,11.5,95,0.03,RA,,0.12,0.0,WeatherDisplay:10.37,2014-02-13 08:36:00,
2014-02-13 08:41:00,34.3,33.0,28.98,WSW,240,9.2,9.2,95,0.03,RA,,0.13,0.0,WeatherDisplay:10.37,2014-02-13 08:41:00,
2014-02-13 08:46:00,34.2,32.9,28.98,SW,233,12.7,12.7,95,0.05,RA,,0.13,0.0,WeatherDisplay:10.37,2014-02-13 08:46:00,
2014-02-13 08:51:00,34.1,32.8,28.98,WSW,242,10.4,10.4,95,0.06,RA,,0.14,0.0,WeatherDisplay:10.37,2014-02-13 08:51:00,
2014-02-13 08:56:00,34.0,32.7,28.99,West,267,9.2,9.2,95,0.06,RA,,0.16,0.0,WeatherDisplay:10.37,2014-02-13 08:56:00,
2014-02-13 09:01:00,34.1,33.1,28.98,WSW,255,12.0,12.0,96,0.07,RA,,0.17,0.0,WeatherDisplay:10.37,2014-02-13 09:01:00,
2014-02-13 09:06:00,34.2,33.2,28.97,South,184,8.1,8.1,96,0.07,RA,,0.17,0.0,WeatherDisplay:10.37,2014-02-13 09:06:00,
2014-02-13 09:11:00,34.2,33.2,28.97,SW,225,6.0,6.0,96,0.07,RA,,0.17,0.0,WeatherDisplay:10.37,2014-02-13 09:11:00,
2014-02-13 09:16:00,34.3,33.3,28.97,WSW,242,9.0,9.0,96,0.08,RA,,0.18,0.0,WeatherDisplay:10.37,2014-02-13 09:16:00,
2014-02-13 09:21:00,34.7,33.7,28.97,South,183,13.8,13.8,96,0.09,RA,,0.20,0.0,WeatherDisplay:10.37,2014-02-13 09:21:00,
2014-02-13 09:26:00,34.6,33.3,28.96,SSW,212,3.5,3.5,95,0.09,RA,,0.20,0.0,WeatherDisplay:10.37,2014-02-13 09:26:00,
2014-02-13 09:31:00,34.6,33.6,28.96,South,187,5.0,5.0,96,0.09,RA,,0.20,0.0,WeatherDisplay:10.37,2014-02-13 09:31:00,
2014-02-13 09:36:00,34.7,33.7,28.97,South,176,4.0,4.1,96,0.09,RA,,0.20,0.0,WeatherDisplay:10.37,2014-02-13 09:36:00,
2014-02-13 09:41:00,34.9,33.9,28.96,SSE,159,4.6,4.6,96,0.09,RA,,0.21,0.0,WeatherDisplay:10.37,2014-02-13 09:41:00,
2014-02-13 09:46:00,35.2,34.2,28.96,SSW,205,11.0,11.0,96,0.09,RA,,0.22,0.0,WeatherDisplay:10.37,2014-02-13 09:46:00,
2014-02-13 09:51:00,35.3,34.3,28.96,SSW,205,11.5,11.5,96,0.08,RA,,0.22,0.0,WeatherDisplay:10.37,2014-02-13 09:51:00,
2014-02-13 09:56:00,35.5,34.5,28.96,SSW,198,10.0,10.0,96,0.07,BKN,,0.22,0.0,WeatherDisplay:10.37,2014-02-13 09:56:00,
2014-02-13 10:01:00,35.6,34.6,28.96,South,186,9.2,9.2,96,0.06,BKN,,0.22,0.0,WeatherDisplay:10.37,2014-02-13 10:01:00,
2014-02-13 10:06:00,35.8,34.8,28.95,SSW,210,9.2,9.2,96,0.05,BKN,,0.22,0.0,WeatherDisplay:10.37,2014-02-13 10:06:00,
2014-02-13 10:11:00,35.9,34.6,28.96,SSW,213,5.8,5.8,95,0.05,BKN,,0.22,0.0,WeatherDisplay:10.37,2014-02-13 10:11:00,
2014-02-13 10:16:00,36.0,34.7,28.96,SSW,198,4.6,4.6,95,0.05,RA,,0.23,0.0,WeatherDisplay:10.37,2014-02-13 10:16:00,
2014-02-13 10:21:00,36.2,34.9,28.96,SSE,150,6.9,6.9,95,0.04,RA,,0.23,0.0,WeatherDisplay:10.37,2014-02-13 10:21:00,
2014-02-13 10:26:00,36.5,35.2,28.96,SSW,208,7.0,7.0,95,0.03,BKN,,0.23,0.0,WeatherDisplay:10.37,2014-02-13 10:26:00,
2014-02-13 10:31:00,36.8,35.2,28.96,SSW,206,7.0,7.0,94,0.03,BKN,,0.23,0.0,WeatherDisplay:10.37,2014-02-13 10:31:00,
2014-02-13 10:36:00,37.1,35.5,28.96,SSW,199,5.8,5.8,94,0.02,BKN,,0.23,0.0,WeatherDisplay:10.37,2014-02-13 10:36:00,
2014-02-13 10:41:00,37.4,35.8,28.97,SSW,198,10.0,10.0,94,0.02,BKN,,0.23,0.0,WeatherDisplay:10.37,2014-02-13 10:41:00,
2014-02-13 10:46:00,37.9,36.1,28.97,SW,222,15.0,15.0,93,0.01,BKN,,0.23,0.0,WeatherDisplay:10.37,2014-02-13 10:46:00,
2014-02-13 10:51:00,38.9,36.8,28.96,SW,222,11.5,11.5,92,0.02,RA,,0.24,0.0,WeatherDisplay:10.37,2014-02-13 10:51:00,
2014-02-13 10:56:00,39.7,37.3,28.97,SW,221,9.2,9.2,91,0.02,RA,,0.24,0.0,WeatherDisplay:10.37,2014-02-13 10:56:00,
2014-02-13 11:01:00,40.4,37.4,28.97,WSW,248,10.4,10.4,89,0.02,BKN,,0.24,0.0,WeatherDisplay:10.37,2014-02-13 11:01:00,
2014-02-13 11:06:00,41.1,37.8,28.97,SW,231,11.0,11.0,88,0.02,BKN,,0.24,0.0,WeatherDisplay:10.37,2014-02-13 11:06:00,
2014-02-13 11:11:00,41.9,38.3,28.98,WSW,249,10.4,10.4,87,0.02,BKN,,0.24,0.0,WeatherDisplay:10.37,2014-02-13 11:11:00,
2014-02-13 11:16:00,42.4,38.2,28.98,WSW,248,11.5,11.5,85,0.01,BKN,,0.24,0.0,WeatherDisplay:10.37,2014-02-13 11:16:00,
2014-02-13 11:21:00,43.2,37.8,28.98,SW,225,18.4,18.4,81,0.01,BKN,,0.24,0.0,WeatherDisplay:10.37,2014-02-13 11:21:00,
2014-02-13 11:26:00,43.8,36.7,28.99,WSW,252,26.5,26.5,76,0.01,BKN,,0.24,0.0,WeatherDisplay:10.37,2014-02-13 11:26:00,
2014-02-13 11:31:00,44.2,37.4,28.99,WSW,245,20.0,20.0,77,0.01,BKN,,0.24,0.0,WeatherDisplay:10.37,2014-02-13 11:31:00,
2014-02-13 11:36:00,44.5,37.1,28.99,SW,222,15.0,15.0,75,0.01,BKN,,0.24,0.0,WeatherDisplay:10.37,2014-02-13 11:36:00,
2014-02-13 11:41:00,44.5,36.7,29.00,WSW,250,18.0,18.0,74,0.01,BKN,,0.24,0.0,WeatherDisplay:10.37,2014-02-13 11:41:00,
2014-02-13 11:46:00,44.3,35.8,29.00,WSW,243,16.1,16.1,72,0.01,BKN,,0.24,0.0,WeatherDisplay:10.37,2014-02-13 11:46:00,
2014-02-13 11:51:00,44.2,35.0,29.00,SW,226,18.0,18.0,70,0.00,BKN,,0.24,0.0,WeatherDisplay:10.37,2014-02-13 11:51:00,
2014-02-13 11:56:00,44.1,34.2,29.01,WSW,255,29.9,29.9,68,0.00,BKN,,0.24,0.0,WeatherDisplay:10.37,2014-02-13 11:56:00,
2014-02-13 12:01:00,43.7,34.9,29.01,WSW,253,16.1,16.1,71,0.00,BKN,,0.24,0.0,WeatherDisplay:10.37,2014-02-13 12:01:00,
2014-02-13 12:06:00,43.7,35.3,29.02,SW,236,18.4,18.4,72,0.00,BKN,,0.24,0.0,WeatherDisplay:10.37,2014-02-13 12:06:00,
2014-02-13 12:11:00,43.6,35.9,29.02,WSW,253,17.3,17.3,74,0.00,BKN,,0.24,0.0,WeatherDisplay:10.37,2014-02-13 12:11:00,
2014-02-13 12:16:00,43.3,36.2,29.02,West,264,15.0,15.0,76,0.00,BKN,,0.24,0.0,WeatherDisplay:10.37,2014-02-13 12:16:00,
2014-02-13 12:21:00,43.0,36.6,29.02,SW,233,11.5,11.5,78,0.00,BKN,,0.24,0.0,WeatherDisplay:10.37,2014-02-13 12:21:00,
2014-02-13 12:26:00,42.7,36.3,29.02,West,259,13.8,13.8,78,0.00,BKN,,0.24,0.0,WeatherDisplay:10.37,2014-02-13 12:26:00,
2014-02-13 12:31:00,42.6,35.9,29.02,SW,224,17.3,17.3,77,0.00,BKN,,0.24,0.0,WeatherDisplay:10.37,2014-02-13 12:31:00,
2014-02-13 12:36:00,42.8,36.1,29.02,SSW,208,16.1,16.1,77,0.00,BKN,,0.24,0.0,WeatherDisplay:10.37,2014-02-13 12:36:00,
2014-02-13 12:41:00,43.2,36.1,29.02,WSW,253,17.3,17.3,76,0.00,BKN,,0.24,0.0,WeatherDisplay:10.37,2014-02-13 12:41:00,
2014-02-13 12:46:00,43.3,36.2,29.02,WSW,250,19.6,19.6,76,0.00,BKN,,0.24,0.0,WeatherDisplay:10.37,2014-02-13 12:46:00,
2014-02-13 12:51:00,43.5,36.4,29.03,SW,231,16.1,16.1,76,0.00,BKN,,0.24,0.0,WeatherDisplay:10.37,2014-02-13 12:51:00,
2014-02-13 12:56:00,43.7,36.3,29.03,SW,233,20.7,20.7,75,0.00,BKN,,0.24,0.0,WeatherDisplay:10.37,2014-02-13 12:56:00,
2014-02-13 13:01:00,44.1,36.0,29.03,WSW,243,19.6,19.6,73,0.00,BKN,,0.24,0.0,WeatherDisplay:10.37,2014-02-13 13:01:00,
2014-02-13 13:06:00,44.7,35.5,29.03,WSW,255,19.6,19.6,70,0.00,BKN,,0.24,0.0,WeatherDisplay:10.37,2014-02-13 13:06:00,
2014-02-13 13:11:00,44.8,36.0,29.04,NW,312,18.4,18.4,71,0.00,BKN,,0.24,0.0,WeatherDisplay:10.37,2014-02-13 13:11:00,
2014-02-13 13:16:00,44.6,36.1,29.03,WSW,248,19.6,19.6,72,0.00,BKN,,0.24,0.0,WeatherDisplay:10.37,2014-02-13 13:16:00,
2014-02-13 13:21:00,44.8,37.4,29.03,WSW,257,11.0,11.0,75,0.00,BKN,,0.24,0.0,WeatherDisplay:10.37,2014-02-13 13:21:00,
2014-02-13 13:26:00,45.4,37.2,29.03,SW,229,19.6,19.6,73,0.00,BKN,,0.24,0.0,WeatherDisplay:10.37,2014-02-13 13:26:00,
2014-02-13 13:31:00,45.4,37.2,29.03,WSW,251,19.0,19.0,73,0.00,BKN,,0.24,0.0,WeatherDisplay:10.37,2014-02-13 13:31:00,
2014-02-13 13:36:00,45.3,35.7,29.04,WSW,243,25.3,25.3,69,0.00,BKN,,0.24,0.0,WeatherDisplay:10.37,2014-02-13 13:36:00,
2014-02-13 13:41:00,45.5,37.0,29.04,West,262,19.6,19.6,72,0.00,BKN,,0.24,0.0,WeatherDisplay:10.37,2014-02-13 13:41:00,
2014-02-13 13:46:00,45.6,37.1,29.04,WSW,240,15.0,15.0,72,0.00,BKN,,0.24,0.0,WeatherDisplay:10.37,2014-02-13 13:46:00,
2014-02-13 13:51:00,45.3,36.4,29.05,WSW,237,24.2,24.2,71,0.00,BKN,,0.24,0.0,WeatherDisplay:10.37,2014-02-13 13:51:00,
2014-02-13 13:56:00,45.1,36.6,29.05,WSW,253,17.0,17.0,72,0.00,BKN,,0.24,0.0,WeatherDisplay:10.37,2014-02-13 13:56:00,
2014-02-13 14:01:00,45.1,37.3,29.04,West,266,19.6,19.6,74,0.00,BKN,,0.24,0.0,WeatherDisplay:10.37,2014-02-13 14:01:00,
2014-02-13 14:06:00,45.6,37.4,29.04,WSW,257,21.9,21.9,73,0.00,BKN,,0.24,0.0,WeatherDisplay:10.37,2014-02-13 14:06:00,
2014-02-13 14:11:00,45.6,37.1,29.04,West,259,21.9,21.9,72,0.00,BKN,,0.24,0.0,WeatherDisplay:10.37,2014-02-13 14:11:00,
2014-02-13 14:16:00,45.7,37.2,29.05,SW,228,19.6,19.6,72,0.00,BKN,,0.24,0.0,WeatherDisplay:10.37,2014-02-13 14:16:00,
2014-02-13 14:21:00,46.1,37.6,29.04,West,269,19.6,19.6,72,0.00,BKN,,0.24,0.0,WeatherDisplay:10.37,2014-02-13 14:21:00,
2014-02-13 14:26:00,46.4,37.5,29.05,WSW,239,24.2,24.2,71,0.00,BKN,,0.24,0.0,WeatherDisplay:10.37,2014-02-13 14:26:00,
2014-02-13 14:31:00,46.1,36.1,29.05,SW,236,25.3,25.3,68,0.00,BKN,,0.24,0.0,WeatherDisplay:10.37,2014-02-13 14:31:00,
2014-02-13 14:36:00,46.1,35.7,29.05,SW,224,26.5,26.5,67,0.00,BKN,,0.24,0.0,WeatherDisplay:10.37,2014-02-13 14:36:00,
2014-02-13 14:41:00,45.8,34.7,29.05,SW,225,25.3,25.3,65,0.00,BKN,,0.24,0.0,WeatherDisplay:10.37,2014-02-13 14:41:00,
2014-02-13 14:46:00,45.6,34.9,29.05,WSW,249,31.0,31.0,66,0.00,BKN,,0.24,0.0,WeatherDisplay:10.37,2014-02-13 14:46:00,
2014-02-13 14:51:00,45.4,34.7,29.05,West,263,19.6,19.6,66,0.00,BKN,,0.24,0.0,WeatherDisplay:10.37,2014-02-13 14:51:00,
2014-02-13 14:56:00,44.9,36.4,29.06,WNW,291,17.3,17.3,72,0.00,BKN,,0.24,0.0,WeatherDisplay:10.37,2014-02-13 14:56:00,
2014-02-13 15:01:00,42.3,36.6,29.07,WSW,256,23.0,23.0,80,0.01,RA,,0.24,0.0,WeatherDisplay:10.37,2014-02-13 15:01:00,
2014-02-13 15:06:00,41.6,37.1,29.07,WSW,253,15.0,15.0,84,0.01,RA,,0.24,0.0,WeatherDisplay:10.37,2014-02-13 15:06:00,
2014-02-13 15:11:00,41.6,37.4,29.08,WNW,290,13.8,13.8,85,0.01,BKN,,0.24,0.0,WeatherDisplay:10.37,2014-02-13 15:11:00,
2014-02-13 15:16:00,40.8,36.9,29.08,West,273,17.3,17.3,86,0.02,RA,,0.25,0.0,WeatherDisplay:10.37,2014-02-13 15:16:00,
2014-02-13 15:21:00,40.3,37.3,29.08,WSW,245,13.8,13.8,89,0.02,RA,,0.25,0.0,WeatherDisplay:10.37,2014-02-13 15:21:00,
2014-02-13 15:26:00,40.4,37.4,29.08,WSW,248,16.1,16.1,89,0.02,BKN,,0.25,0.0,WeatherDisplay:10.37,2014-02-13 15:26:00,
2014-02-13 15:31:00,40.7,37.4,29.09,WNW,290,11.5,11.5,88,0.02,BKN,,0.25,0.0,WeatherDisplay:10.37,2014-02-13 15:31:00,
2014-02-13 15:36:00,40.8,37.5,29.09,WNW,296,12.0,12.0,88,0.02,RA,,0.26,0.0,WeatherDisplay:10.37,2014-02-13 15:36:00,
2014-02-13 15:41:00,40.5,37.2,29.09,West,274,16.1,16.1,88,0.02,RA,,0.26,0.0,WeatherDisplay:10.37,2014-02-13 15:41:00,
2014-02-13 15:46:00,40.4,37.4,29.09,West,276,11.5,11.5,89,0.02,BKN,,0.26,0.0,WeatherDisplay:10.37,2014-02-13 15:46:00,
2014-02-13 15:51:00,40.6,37.3,29.09,WSW,248,15.0,15.0,88,0.02,BKN,,0.26,0.0,WeatherDisplay:10.37,2014-02-13 15:51:00,
2014-02-13 15:56:00,40.8,37.8,29.09,WSW,256,10.0,10.0,89,0.02,BKN,,0.26,0.0,WeatherDisplay:10.37,2014-02-13 15:56:00,
2014-02-13 16:03:00,41.2,37.3,29.10,WSW,245,18.4,18.4,86,0.02,BKN,,0.26,0.0,WeatherDisplay:10.37,2014-02-13 16:03:00,
2014-02-13 16:08:00,41.4,37.2,29.09,West,264,20.7,20.7,85,0.02,BKN,,0.26,0.0,WeatherDisplay:10.37,2014-02-13 16:08:00,
2014-02-13 16:13:00,41.3,37.1,29.10,WSW,256,17.0,17.0,85,0.02,BKN,,0.26,0.0,WeatherDisplay:10.37,2014-02-13 16:13:00,
2014-02-13 16:18:00,41.2,37.0,29.10,WSW,243,19.6,19.6,85,0.01,BKN,,0.26,0.0,WeatherDisplay:10.37,2014-02-13 16:18:00,
2014-02-13 16:23:00,41.1,36.9,29.10,SW,228,21.9,21.9,85,0.02,RA,,0.27,0.0,WeatherDisplay:10.37,2014-02-13 16:23:00,
2014-02-13 16:28:00,40.6,37.0,29.10,SW,222,20.7,20.7,87,0.02,RA,,0.27,0.0,WeatherDisplay:10.37,2014-02-13 16:28:00,
2014-02-13 16:33:00,40.5,37.2,29.10,SW,228,18.4,18.4,88,0.02,BKN,,0.27,0.0,WeatherDisplay:10.37,2014-02-13 16:33:00,
2014-02-13 16:38:00,40.4,37.4,29.10,SW,235,13.8,13.8,89,0.01,BKN,,0.27,0.0,WeatherDisplay:10.37,2014-02-13 16:38:00,
2014-02-13 16:43:00,40.1,37.1,29.10,SW,233,15.0,15.0,89,0.01,BKN,,0.27,0.0,WeatherDisplay:10.37,2014-02-13 16:43:00,
2014-02-13 16:48:00,39.9,36.9,29.10,WSW,249,15.0,15.0,89,0.01,BKN,,0.27,0.0,WeatherDisplay:10.37,2014-02-13 16:48:00,
2014-02-13 16:53:00,39.6,36.9,29.11,WSW,246,17.3,17.3,90,0.01,BKN,,0.27,0.0,WeatherDisplay:10.37,2014-02-13 16:53:00,
2014-02-13 16:58:00,39.4,36.7,29.11,WSW,245,17.3,17.3,90,0.01,BKN,,0.27,0.0,WeatherDisplay:10.37,2014-02-13 16:58:00,
2014-02-13 17:03:00,39.2,36.8,29.11,West,263,15.0,15.0,91,0.01,BKN,,0.27,0.0,WeatherDisplay:10.37,2014-02-13 17:03:00,
2014-02-13 17:08:00,39.1,36.7,29.11,SSW,203,16.1,16.1,91,0.01,BKN,,0.27,0.0,WeatherDisplay:10.37,2014-02-13 17:08:00,
2014-02-13 17:13:00,39.0,36.6,29.12,SSW,197,12.7,12.7,91,0.01,BKN,,0.27,0.0,WeatherDisplay:10.37,2014-02-13 17:13:00,
2014-02-13 17:18:00,39.0,36.9,29.12,WSW,239,13.8,13.8,92,0.01,BKN,,0.27,0.0,WeatherDisplay:10.37,2014-02-13 17:18:00,
2014-02-13 17:23:00,39.1,37.0,29.12,South,177,11.5,11.5,92,0.01,RA,,0.28,0.0,WeatherDisplay:10.37,2014-02-13 17:23:00,
2014-02-13 17:28:00,39.1,37.2,29.12,SW,229,15.0,15.0,93,0.01,RA,,0.28,0.0,WeatherDisplay:10.37,2014-02-13 17:28:00,
2014-02-13 17:33:00,39.1,37.2,29.13,WSW,245,15.0,15.0,93,0.01,BKN,,0.28,0.0,WeatherDisplay:10.37,2014-02-13 17:33:00,
2014-02-13 17:38:00,39.2,37.3,29.13,SW,231,13.8,13.8,93,0.01,BKN,,0.28,0.0,WeatherDisplay:10.37,2014-02-13 17:38:00,
2014-02-13 17:43:00,39.1,37.2,29.13,WSW,248,8.1,8.1,93,0.01,BKN,,0.28,0.0,WeatherDisplay:10.37,2014-02-13 17:43:00,
2014-02-13 17:48:00,39.0,37.1,29.13,WSW,253,10.4,10.4,93,0.01,BKN,,0.28,0.0,WeatherDisplay:10.37,2014-02-13 17:48:00,
2014-02-13 17:53:00,38.9,37.0,29.13,SW,221,9.2,9.2,93,0.01,BKN,,0.28,0.0,WeatherDisplay:10.37,2014-02-13 17:53:00,
2014-02-13 17:58:00,38.7,36.9,29.14,SW,215,6.9,6.9,93,0.01,BKN,,0.28,0.0,WeatherDisplay:10.37,2014-02-13 17:58:00,
2014-02-13 18:03:00,38.4,36.6,29.14,SW,219,8.1,8.1,93,0.01,BKN,,0.28,0.0,WeatherDisplay:10.37,2014-02-13 18:03:00,
2014-02-13 18:08:00,38.3,36.7,29.14,SW,221,8.1,8.1,94,0.01,BKN,,0.28,0.0,WeatherDisplay:10.37,2014-02-13 18:08:00,
2014-02-13 18:13:00,38.2,36.6,29.14,SW,222,11.5,11.5,94,0.01,BKN,,0.28,0.0,WeatherDisplay:10.37,2014-02-13 18:13:00,
2014-02-13 18:18:00,38.3,36.7,29.14,SW,224,12.0,12.0,94,0.01,BKN,,0.28,0.0,WeatherDisplay:10.37,2014-02-13 18:18:00,
2014-02-13 18:23:00,38.5,36.9,29.15,SSW,210,10.4,10.4,94,0.00,BKN,,0.28,0.0,WeatherDisplay:10.37,2014-02-13 18:23:00,
2014-02-13 18:28:00,38.7,37.1,29.15,South,191,9.2,9.2,94,0.00,BKN,,0.28,0.0,WeatherDisplay:10.37,2014-02-13 18:28:00,
2014-02-13 18:33:00,38.6,37.0,29.15,South,188,6.9,6.9,94,0.00,BKN,,0.28,0.0,WeatherDisplay:10.37,2014-02-13 18:33:00,
2014-02-13 18:38:00,38.5,36.9,29.15,South,180,10.4,10.4,94,0.00,BKN,,0.28,0.0,WeatherDisplay:10.37,2014-02-13 18:38:00,
2014-02-13 18:43:00,38.5,36.9,29.16,SSW,201,9.2,9.2,94,0.00,BKN,,0.28,0.0,WeatherDisplay:10.37,2014-02-13 18:43:00,
2014-02-13 18:48:00,38.5,36.9,29.15,SW,214,5.8,5.8,94,0.00,BKN,,0.28,0.0,WeatherDisplay:10.37,2014-02-13 18:48:00,
2014-02-13 18:53:00,38.5,36.9,29.16,West,270,11.5,11.5,94,0.00,BKN,,0.28,0.0,WeatherDisplay:10.37,2014-02-13 18:53:00,
2014-02-13 18:58:00,38.5,37.2,29.16,SSW,207,8.1,8.1,95,0.01,RA,,0.28,0.0,WeatherDisplay:10.37,2014-02-13 18:58:00,
2014-02-13 19:03:00,38.7,37.4,29.17,WSW,240,9.2,9.2,95,0.01,RA,,0.28,0.0,WeatherDisplay:10.37,2014-02-13 19:03:00,
2014-02-13 19:08:00,38.8,37.5,29.18,WSW,245,9.2,9.2,95,0.01,BKN,,0.28,0.0,WeatherDisplay:10.37,2014-02-13 19:08:00,
2014-02-13 19:13:00,39.0,37.7,29.18,SW,236,8.1,8.1,95,0.02,RA,,0.29,0.0,WeatherDisplay:10.37,2014-02-13 19:13:00,
2014-02-13 19:18:00,39.0,37.7,29.18,SSW,210,5.8,5.8,95,0.02,RA,,0.30,0.0,WeatherDisplay:10.37,2014-02-13 19:18:00,
2014-02-13 19:23:00,39.1,37.8,29.18,SW,235,6.9,6.9,95,0.05,RA,,0.33,0.0,WeatherDisplay:10.37,2014-02-13 19:23:00,
2014-02-13 19:28:00,39.0,37.7,29.18,South,187,3.5,3.5,95,0.06,RA,,0.33,0.0,WeatherDisplay:10.37,2014-02-13 19:28:00,
2014-02-13 19:33:00,38.9,37.6,29.18,SW,231,11.5,11.5,95,0.06,RA,,0.33,0.0,WeatherDisplay:10.37,2014-02-13 19:33:00,
2014-02-13 19:38:00,38.9,37.6,29.18,SW,228,9.0,9.0,95,0.06,BKN,,0.33,0.0,WeatherDisplay:10.37,2014-02-13 19:38:00,
2014-02-13 19:43:00,38.9,37.6,29.18,SW,231,6.9,6.9,95,0.06,BKN,,0.33,0.0,WeatherDisplay:10.37,2014-02-13 19:43:00,
2014-02-13 19:48:00,38.8,37.5,29.18,WSW,245,11.5,11.5,95,0.06,BKN,,0.33,0.0,WeatherDisplay:10.37,2014-02-13 19:48:00,
2014-02-13 19:53:00,38.6,37.0,29.18,WSW,248,10.4,10.4,94,0.06,BKN,,0.33,0.0,WeatherDisplay:10.37,2014-02-13 19:53:00,
2014-02-13 19:58:00,38.5,37.2,29.19,South,191,11.5,11.5,95,0.06,RA,,0.34,0.0,WeatherDisplay:10.37,2014-02-13 19:58:00,
2014-02-13 20:03:00,38.6,37.3,29.20,WSW,246,9.2,9.2,95,0.06,RA,,0.34,0.0,WeatherDisplay:10.37,2014-02-13 20:03:00,
2014-02-13 20:08:00,38.5,37.2,29.20,South,188,11.5,11.5,95,0.06,BKN,,0.34,0.0,WeatherDisplay:10.37,2014-02-13 20:08:00,
2014-02-13 20:13:00,38.4,37.1,29.20,South,186,11.5,11.5,95,0.05,BKN,,0.34,0.0,WeatherDisplay:10.37,2014-02-13 20:13:00,
2014-02-13 20:18:00,38.5,37.2,29.20,SSW,194,11.5,11.5,95,0.04,BKN,,0.34,0.0,WeatherDisplay:10.37,2014-02-13 20:18:00,
2014-02-13 20:23:00,38.4,37.1,29.20,SW,228,8.1,8.1,95,0.02,BKN,,0.34,0.0,WeatherDisplay:10.37,2014-02-13 20:23:00,
2014-02-13 20:28:00,38.3,37.0,29.20,South,180,5.0,5.0,95,0.01,BKN,,0.34,0.0,WeatherDisplay:10.37,2014-02-13 20:28:00,
2014-02-13 20:33:00,38.1,36.8,29.21,WSW,257,3.5,3.5,95,0.01,BKN,,0.34,0.0,WeatherDisplay:10.37,2014-02-13 20:33:00,
2014-02-13 20:38:00,37.9,36.6,29.21,SSW,207,4.6,4.6,95,0.01,BKN,,0.34,0.0,WeatherDisplay:10.37,2014-02-13 20:38:00,
2014-02-13 20:43:00,37.9,36.6,29.21,SW,219,11.5,11.5,95,0.01,BKN,,0.34,0.0,WeatherDisplay:10.37,2014-02-13 20:43:00,
2014-02-13 20:48:00,37.8,36.5,29.21,SSW,207,11.5,11.5,95,0.01,BKN,,0.34,0.0,WeatherDisplay:10.37,2014-02-13 20:48:00,
2014-02-13 20:53:00,37.7,36.1,29.21,SSW,207,9.2,9.2,94,0.01,BKN,,0.34,0.0,WeatherDisplay:10.37,2014-02-13 20:53:00,
2014-02-13 20:58:00,37.6,36.3,29.22,SSW,201,5.8,5.8,95,0.00,BKN,,0.34,0.0,WeatherDisplay:10.37,2014-02-13 20:58:00,
2014-02-13 21:03:00,37.5,36.2,29.22,SSW,208,8.1,8.1,95,0.00,BKN,,0.34,0.0,WeatherDisplay:10.37,2014-02-13 21:03:00,
2014-02-13 21:08:00,37.5,36.2,29.22,WSW,253,4.6,4.6,95,0.00,BKN,,0.34,0.0,WeatherDisplay:10.37,2014-02-13 21:08:00,
2014-02-13 21:13:00,37.5,36.2,29.22,SSW,207,8.1,8.1,95,0.00,BKN,,0.34,0.0,WeatherDisplay:10.37,2014-02-13 21:13:00,
2014-02-13 21:18:00,37.7,36.4,29.23,WSW,248,9.2,9.2,95,0.00,BKN,,0.34,0.0,WeatherDisplay:10.37,2014-02-13 21:18:00,
2014-02-13 21:23:00,38.3,37.0,29.23,West,261,16.1,16.1,95,0.00,BKN,,0.34,0.0,WeatherDisplay:10.37,2014-02-13 21:23:00,
2014-02-13 21:28:00,39.2,37.3,29.24,WSW,240,17.3,17.3,93,0.00,BKN,,0.34,0.0,WeatherDisplay:10.37,2014-02-13 21:28:00,
2014-02-13 21:33:00,39.4,37.3,29.24,West,262,15.0,15.0,92,0.00,BKN,,0.34,0.0,WeatherDisplay:10.37,2014-02-13 21:33:00,
2014-02-13 21:38:00,39.3,37.2,29.24,West,262,10.4,10.4,92,0.00,BKN,,0.34,0.0,WeatherDisplay:10.37,2014-02-13 21:38:00,
2014-02-13 21:43:00,39.3,37.2,29.24,WSW,248,11.5,11.5,92,0.00,BKN,,0.34,0.0,WeatherDisplay:10.37,2014-02-13 21:43:00,
2014-02-13 21:48:00,39.2,37.1,29.24,WSW,243,8.1,8.1,92,0.00,BKN,,0.34,0.0,WeatherDisplay:10.37,2014-02-13 21:48:00,
2014-02-13 21:53:00,39.0,36.9,29.24,SSW,210,5.8,5.8,92,0.00,BKN,,0.34,0.0,WeatherDisplay:10.37,2014-02-13 21:53:00,
2014-02-13 21:58:00,38.6,36.5,29.24,SSW,207,6.9,6.9,92,0.00,BKN,,0.34,0.0,WeatherDisplay:10.37,2014-02-13 21:58:00,
2014-02-13 22:03:00,38.2,36.4,29.24,WSW,248,8.1,8.1,93,0.00,BKN,,0.34,0.0,WeatherDisplay:10.37,2014-02-13 22:03:00,
2014-02-13 22:08:00,38.0,36.2,29.24,WSW,238,8.1,8.1,93,0.00,BKN,,0.34,0.0,WeatherDisplay:10.37,2014-02-13 22:08:00,
2014-02-13 22:13:00,37.9,36.1,29.24,SW,221,11.5,11.5,93,0.00,BKN,,0.34,0.0,WeatherDisplay:10.37,2014-02-13 22:13:00,
2014-02-13 22:18:00,37.9,36.3,29.24,SSW,211,8.1,8.1,94,0.00,BKN,,0.34,0.0,WeatherDisplay:10.37,2014-02-13 22:18:00,
2014-02-13 22:23:00,37.8,36.2,29.24,SSW,210,9.2,9.2,94,0.00,BKN,,0.34,0.0,WeatherDisplay:10.37,2014-02-13 22:23:00,
2014-02-13 22:28:00,37.5,35.7,29.24,SW,224,6.9,6.9,93,0.00,BKN,,0.34,0.0,WeatherDisplay:10.37,2014-02-13 22:28:00,
2014-02-13 22:33:00,37.2,35.6,29.24,South,187,4.0,4.0,94,0.00,BKN,,0.34,0.0,WeatherDisplay:10.37,2014-02-13 22:33:00,
2014-02-13 22:38:00,36.8,35.2,29.24,SW,236,6.0,6.0,94,0.00,BKN,,0.34,0.0,WeatherDisplay:10.37,2014-02-13 22:38:00,
2014-02-13 22:43:00,36.7,35.1,29.24,SW,229,6.0,6.0,94,0.00,BKN,,0.34,0.0,WeatherDisplay:10.37,2014-02-13 22:43:00,
2014-02-13 22:48:00,36.6,35.3,29.24,SSW,194,4.6,4.6,95,0.00,BKN,,0.34,0.0,WeatherDisplay:10.37,2014-02-13 22:48:00,
2014-02-13 22:53:00,36.5,35.2,29.24,South,176,4.6,4.6,95,0.00,BKN,,0.34,0.0,WeatherDisplay:10.37,2014-02-13 22:53:00,
2014-02-13 22:58:00,36.5,35.2,29.24,South,178,4.6,4.6,95,0.00,BKN,,0.34,0.0,WeatherDisplay:10.37,2014-02-13 22:58:00,
2014-02-13 23:03:00,36.3,35.0,29.25,SSW,198,6.9,6.9,95,0.00,BKN,,0.34,0.0,WeatherDisplay:10.37,2014-02-13 23:03:00,
2014-02-13 23:08:00,36.3,35.0,29.25,South,186,4.6,4.6,95,0.00,BKN,,0.34,0.0,WeatherDisplay:10.37,2014-02-13 23:08:00,
2014-02-13 23:13:00,36.3,35.3,29.25,West,269,5.8,5.8,96,0.00,BKN,,0.34,0.0,WeatherDisplay:10.37,2014-02-13 23:13:00,
2014-02-13 23:18:00,36.3,35.0,29.25,SSW,203,4.6,4.6,95,0.00,BKN,,0.34,0.0,WeatherDisplay:10.37,2014-02-13 23:18:00,
2014-02-13 23:23:00,36.1,34.8,29.24,SSW,211,3.5,3.5,95,0.00,BKN,,0.34,0.0,WeatherDisplay:10.37,2014-02-13 23:23:00,
2014-02-13 23:28:00,36.1,35.1,29.24,SW,215,3.5,3.5,96,0.00,BKN,,0.34,0.0,WeatherDisplay:10.37,2014-02-13 23:28:00,
2014-02-13 23:33:00,35.9,34.6,29.24,SSW,212,2.3,2.3,95,0.00,BKN,,0.34,0.0,WeatherDisplay:10.37,2014-02-13 23:33:00,
2014-02-13 23:38:00,35.7,34.7,29.24,SSW,200,3.5,3.5,96,0.00,BKN,,0.34,0.0,WeatherDisplay:10.37,2014-02-13 23:38:00,
2014-02-13 23:43:00,35.7,34.7,29.24,SSW,200,3.5,3.5,96,0.00,BKN,,0.34,0.0,WeatherDisplay:10.37,2014-02-13 23:43:00,
2014-02-13 23:48:00,35.7,34.7,29.24,South,177,1.2,1.5,96,0.00,BKN,,0.34,0.0,WeatherDisplay:10.37,2014-02-13 23:48:00,
2014-02-13 23:54:00,35.6,34.6,29.24,SSE,155,1.2,1.2,96,0.00,BKN,,0.34,0.0,WeatherDisplay:10.37,2014-02-13 23:54:00,